sensor_id;sensor_type;location;lat;lon;timestamp;pressure;altitude;pressure_sealevel;temperature
69420;BMP280;56612;52.030;113.524;2023-04-01T00:01:37;93082.84;;;-1.71
69420;BMP280;56612;52.030;113.524;2023-04-01T00:04:40;93096.94;;;-1.76
69420;BMP280;56612;52.030;113.524;2023-04-01T00:07:45;93104.16;;;-1.65
69420;BMP280;56612;52.030;113.524;2023-04-01T00:10:49;93105.41;;;-1.45
69420;BMP280;56612;52.030;113.524;2023-04-01T00:13:53;93109.53;;;-1.41
69420;BMP280;56612;52.030;113.524;2023-04-01T00:16:57;93105.44;;;-1.23
69420;BMP280;56612;52.030;113.524;2023-04-01T00:20:02;93104.72;;;-1.02
69420;BMP280;56612;52.030;113.524;2023-04-01T00:23:06;93102.38;;;-0.75
69420;BMP280;56612;52.030;113.524;2023-04-01T00:26:10;93112.03;;;-0.33
69420;BMP280;56612;52.030;113.524;2023-04-01T00:29:15;93109.22;;;-0.25
69420;BMP280;56612;52.030;113.524;2023-04-01T00:32:21;93115.31;;;-0.55
69420;BMP280;56612;52.030;113.524;2023-04-01T00:35:25;93122.22;;;-0.15
69420;BMP280;56612;52.030;113.524;2023-04-01T00:38:28;93120.50;;;0.24
69420;BMP280;56612;52.030;113.524;2023-04-01T00:41:31;93119.34;;;0.76
69420;BMP280;56612;52.030;113.524;2023-04-01T00:44:37;93121.38;;;1.15
69420;BMP280;56612;52.030;113.524;2023-04-01T00:47:41;93118.78;;;1.03
69420;BMP280;56612;52.030;113.524;2023-04-01T00:50:50;93127.84;;;1.00
69420;BMP280;56612;52.030;113.524;2023-04-01T00:53:58;93121.16;;;0.85
69420;BMP280;56612;52.030;113.524;2023-04-01T00:57:10;93114.13;;;1.27
69420;BMP280;56612;52.030;113.524;2023-04-01T01:00:15;93101.28;;;1.47
69420;BMP280;56612;52.030;113.524;2023-04-01T01:03:20;93105.91;;;1.74
69420;BMP280;56612;52.030;113.524;2023-04-01T01:06:26;93114.50;;;2.02
69420;BMP280;56612;52.030;113.524;2023-04-01T01:09:43;93108.63;;;2.03
69420;BMP280;56612;52.030;113.524;2023-04-01T01:13:08;93123.97;;;2.07
69420;BMP280;56612;52.030;113.524;2023-04-01T01:26:26;93148.53;;;1.98
69420;BMP280;56612;52.030;113.524;2023-04-01T01:29:13;93147.59;;;2.05
69420;BMP280;56612;52.030;113.524;2023-04-01T01:35:54;93169.94;;;2.18
69420;BMP280;56612;52.030;113.524;2023-04-01T01:38:58;93180.31;;;2.14
69420;BMP280;56612;52.030;113.524;2023-04-01T01:42:07;93187.66;;;1.76
69420;BMP280;56612;52.030;113.524;2023-04-01T01:45:14;93180.31;;;2.14
69420;BMP280;56612;52.030;113.524;2023-04-01T01:48:21;93193.78;;;2.20
69420;BMP280;56612;52.030;113.524;2023-04-01T01:51:27;93194.47;;;2.61
69420;BMP280;56612;52.030;113.524;2023-04-01T01:54:34;93199.78;;;2.77
69420;BMP280;56612;52.030;113.524;2023-04-01T01:57:39;93212.41;;;2.79
69420;BMP280;56612;52.030;113.524;2023-04-01T02:01:13;93208.66;;;2.97
69420;BMP280;56612;52.030;113.524;2023-04-01T02:04:19;93204.56;;;2.81
69420;BMP280;56612;52.030;113.524;2023-04-01T02:07:32;93213.56;;;2.76
69420;BMP280;56612;52.030;113.524;2023-04-01T02:10:41;93220.09;;;2.88
69420;BMP280;56612;52.030;113.524;2023-04-01T02:14:03;93242.47;;;3.31
69420;BMP280;56612;52.030;113.524;2023-04-01T02:17:11;93235.19;;;2.72
69420;BMP280;56612;52.030;113.524;2023-04-01T02:20:20;93257.59;;;3.01
69420;BMP280;56612;52.030;113.524;2023-04-01T02:23:26;93263.22;;;2.93
69420;BMP280;56612;52.030;113.524;2023-04-01T02:26:31;93259.78;;;2.77
69420;BMP280;56612;52.030;113.524;2023-04-01T02:29:35;93260.38;;;2.89
69420;BMP280;56612;52.030;113.524;2023-04-01T02:32:42;93277.78;;;2.94
69420;BMP280;56612;52.030;113.524;2023-04-01T02:35:46;93287.53;;;3.19
69420;BMP280;56612;52.030;113.524;2023-04-01T02:38:49;93296.63;;;3.16
69420;BMP280;56612;52.030;113.524;2023-04-01T02:41:54;93282.72;;;3.02
69420;BMP280;56612;52.030;113.524;2023-04-01T02:44:58;93278.44;;;3.08
69420;BMP280;56612;52.030;113.524;2023-04-01T02:48:01;93270.84;;;3.30
69420;BMP280;56612;52.030;113.524;2023-04-01T02:51:06;93280.88;;;3.18
69420;BMP280;56612;52.030;113.524;2023-04-01T02:54:10;93273.34;;;3.12
69420;BMP280;56612;52.030;113.524;2023-04-01T02:57:15;93256.19;;;4.17
69420;BMP280;56612;52.030;113.524;2023-04-01T03:00:19;93252.38;;;4.70
69420;BMP280;56612;52.030;113.524;2023-04-01T03:03:23;93245.25;;;5.08
69420;BMP280;56612;52.030;113.524;2023-04-01T03:06:26;93251.63;;;4.85
69420;BMP280;56612;52.030;113.524;2023-04-01T03:09:30;93246.34;;;4.52
69420;BMP280;56612;52.030;113.524;2023-04-01T03:12:33;93243.03;;;4.35
69420;BMP280;56612;52.030;113.524;2023-04-01T03:15:37;93238.56;;;4.89
69420;BMP280;56612;52.030;113.524;2023-04-01T03:18:40;93245.25;;;4.90
69420;BMP280;56612;52.030;113.524;2023-04-01T03:21:45;93246.31;;;5.36
69420;BMP280;56612;52.030;113.524;2023-04-01T03:24:48;93252.78;;;5.87
69420;BMP280;56612;52.030;113.524;2023-04-01T03:27:55;93249.72;;;6.34
69420;BMP280;56612;52.030;113.524;2023-04-01T03:30:58;93259.06;;;5.78
69420;BMP280;56612;52.030;113.524;2023-04-01T03:34:07;93241.19;;;5.23
69420;BMP280;56612;52.030;113.524;2023-04-01T03:37:12;93254.66;;;4.12
69420;BMP280;56612;52.030;113.524;2023-04-01T03:40:15;93242.75;;;3.66
69420;BMP280;56612;52.030;113.524;2023-04-01T03:43:19;93233.16;;;4.04
69420;BMP280;56612;52.030;113.524;2023-04-01T03:46:24;93235.78;;;4.04
69420;BMP280;56612;52.030;113.524;2023-04-01T03:49:28;93245.44;;;4.29
69420;BMP280;56612;52.030;113.524;2023-04-01T03:52:31;93247.44;;;4.46
69420;BMP280;56612;52.030;113.524;2023-04-01T03:55:38;93245.81;;;4.71
69420;BMP280;56612;52.030;113.524;2023-04-01T03:58:41;93236.22;;;3.99
69420;BMP280;56612;52.030;113.524;2023-04-01T04:01:47;93242.44;;;4.21
69420;BMP280;56612;52.030;113.524;2023-04-01T04:04:51;93252.44;;;5.41
69420;BMP280;56612;52.030;113.524;2023-04-01T04:07:55;93246.63;;;5.82
69420;BMP280;56612;52.030;113.524;2023-04-01T04:10:58;93237.81;;;5.58
69420;BMP280;56612;52.030;113.524;2023-04-01T04:14:02;93236.06;;;5.47
69420;BMP280;56612;52.030;113.524;2023-04-01T04:17:05;93241.75;;;4.52
69420;BMP280;56612;52.030;113.524;2023-04-01T04:20:08;93254.63;;;4.93
69420;BMP280;56612;52.030;113.524;2023-04-01T04:23:12;93256.59;;;5.28
69420;BMP280;56612;52.030;113.524;2023-04-01T04:26:16;93266.91;;;5.38
69420;BMP280;56612;52.030;113.524;2023-04-01T04:29:29;93261.75;;;4.73
69420;BMP280;56612;52.030;113.524;2023-04-01T04:32:34;93263.31;;;4.96
69420;BMP280;56612;52.030;113.524;2023-04-01T04:35:39;93270.97;;;5.05
69420;BMP280;56612;52.030;113.524;2023-04-01T04:38:43;93264.16;;;5.00
69420;BMP280;56612;52.030;113.524;2023-04-01T04:41:47;93266.09;;;5.00
69420;BMP280;56612;52.030;113.524;2023-04-01T04:44:50;93260.19;;;4.84
69420;BMP280;56612;52.030;113.524;2023-04-01T04:47:54;93258.47;;;4.25
69420;BMP280;56612;52.030;113.524;2023-04-01T04:50:58;93255.44;;;4.64
69420;BMP280;56612;52.030;113.524;2023-04-01T04:54:03;93263.81;;;4.59
69420;BMP280;56612;52.030;113.524;2023-04-01T04:57:27;93265.16;;;5.27
69420;BMP280;56612;52.030;113.524;2023-04-01T05:00:31;93265.44;;;5.17
69420;BMP280;56612;52.030;113.524;2023-04-01T05:03:38;93259.03;;;4.71
69420;BMP280;56612;52.030;113.524;2023-04-01T05:06:43;93258.31;;;4.86
69420;BMP280;56612;52.030;113.524;2023-04-01T05:09:48;93254.94;;;5.01
69420;BMP280;56612;52.030;113.524;2023-04-01T05:12:51;93267.88;;;5.11
69420;BMP280;56612;52.030;113.524;2023-04-01T05:15:56;93255.72;;;4.55
69420;BMP280;56612;52.030;113.524;2023-04-01T05:19:00;93263.88;;;4.11
69420;BMP280;56612;52.030;113.524;2023-04-01T05:22:05;93276.75;;;4.35
69420;BMP280;56612;52.030;113.524;2023-04-01T05:25:10;93274.19;;;4.21
69420;BMP280;56612;52.030;113.524;2023-04-01T05:28:14;93281.34;;;4.18
69420;BMP280;56612;52.030;113.524;2023-04-01T05:31:19;93287.38;;;4.05
69420;BMP280;56612;52.030;113.524;2023-04-01T05:34:24;93281.44;;;3.60
69420;BMP280;56612;52.030;113.524;2023-04-01T05:37:27;93286.66;;;3.14
69420;BMP280;56612;52.030;113.524;2023-04-01T05:40:32;93292.94;;;2.93
69420;BMP280;56612;52.030;113.524;2023-04-01T05:43:39;93279.31;;;2.99
69420;BMP280;56612;52.030;113.524;2023-04-01T05:47:08;93286.09;;;2.88
69420;BMP280;56612;52.030;113.524;2023-04-01T05:50:12;93294.56;;;3.01
69420;BMP280;56612;52.030;113.524;2023-04-01T05:53:15;93294.19;;;3.06
69420;BMP280;56612;52.030;113.524;2023-04-01T05:56:19;93290.78;;;3.04
69420;BMP280;56612;52.030;113.524;2023-04-01T05:59:25;93288.34;;;2.94
69420;BMP280;56612;52.030;113.524;2023-04-01T06:02:29;93301.31;;;3.04
69420;BMP280;56612;52.030;113.524;2023-04-01T06:05:40;93296.44;;;2.98
69420;BMP280;56612;52.030;113.524;2023-04-01T06:08:44;93290.56;;;3.13
69420;BMP280;56612;52.030;113.524;2023-04-01T06:15:13;93308.25;;;3.83
69420;BMP280;56612;52.030;113.524;2023-04-01T06:21:54;93302.00;;;4.06
69420;BMP280;56612;52.030;113.524;2023-04-01T06:32:08;93316.03;;;5.41
69420;BMP280;56612;52.030;113.524;2023-04-01T06:42:10;93305.16;;;6.06
69420;BMP280;56612;52.030;113.524;2023-04-01T06:56:26;93319.25;;;7.32
69420;BMP280;56612;52.030;113.524;2023-04-01T06:59:39;93304.38;;;8.96
69420;BMP280;56612;52.030;113.524;2023-04-01T07:02:53;93312.44;;;8.98
69420;BMP280;56612;52.030;113.524;2023-04-01T07:06:04;93324.72;;;10.03
69420;BMP280;56612;52.030;113.524;2023-04-01T07:09:19;93325.66;;;10.51
69420;BMP280;56612;52.030;113.524;2023-04-01T07:13:04;93346.84;;;9.75
69420;BMP280;56612;52.030;113.524;2023-04-01T07:23:39;93327.41;;;11.19
69420;BMP280;56612;52.030;113.524;2023-04-01T07:26:59;93341.38;;;10.35
69420;BMP280;56612;52.030;113.524;2023-04-01T07:30:17;93349.69;;;10.51
69420;BMP280;56612;52.030;113.524;2023-04-01T07:47:19;93353.44;;;12.13
69420;BMP280;56612;52.030;113.524;2023-04-01T08:15:27;93353.75;;;14.75
69420;BMP280;56612;52.030;113.524;2023-04-01T08:19:21;93365.81;;;15.60
69420;BMP280;56612;52.030;113.524;2023-04-01T08:26:12;93347.88;;;10.26
69420;BMP280;56612;52.030;113.524;2023-04-01T08:29:49;93345.97;;;9.37
69420;BMP280;56612;52.030;113.524;2023-04-01T08:33:00;93349.25;;;9.33
69420;BMP280;56612;52.030;113.524;2023-04-01T08:36:30;93361.25;;;8.52
69420;BMP280;56612;52.030;113.524;2023-04-01T08:43:56;93360.78;;;8.10
69420;BMP280;56612;52.030;113.524;2023-04-01T08:50:47;93382.75;;;7.02
69420;BMP280;56612;52.030;113.524;2023-04-01T08:57:31;93384.91;;;6.48
69420;BMP280;56612;52.030;113.524;2023-04-01T09:21:50;93369.91;;;5.30
69420;BMP280;56612;52.030;113.524;2023-04-01T09:35:38;93362.06;;;5.32
69420;BMP280;56612;52.030;113.524;2023-04-01T09:38:49;93361.63;;;5.04
69420;BMP280;56612;52.030;113.524;2023-04-01T09:45:41;93377.00;;;4.76
69420;BMP280;56612;52.030;113.524;2023-04-01T09:49:09;93385.16;;;4.48
69420;BMP280;56612;52.030;113.524;2023-04-01T09:52:41;93376.28;;;4.12
69420;BMP280;56612;52.030;113.524;2023-04-01T09:56:14;93382.13;;;3.95
69420;BMP280;56612;52.030;113.524;2023-04-01T10:13:30;93399.47;;;3.84
69420;BMP280;56612;52.030;113.524;2023-04-01T10:17:05;93395.88;;;3.78
69420;BMP280;56612;52.030;113.524;2023-04-01T10:30:53;93424.94;;;3.35
69420;BMP280;56612;52.030;113.524;2023-04-01T10:37:52;93422.47;;;3.39
69420;BMP280;56612;52.030;113.524;2023-04-01T10:49:05;93455.53;;;3.67
69420;BMP280;56612;52.030;113.524;2023-04-01T11:00:18;93482.44;;;3.64
69420;BMP280;56612;52.030;113.524;2023-04-01T11:04:32;93497.31;;;3.57
69420;BMP280;56612;52.030;113.524;2023-04-01T11:08:31;93487.91;;;3.54
69420;BMP280;56612;52.030;113.524;2023-04-01T11:22:23;93506.38;;;3.26
69420;BMP280;56612;52.030;113.524;2023-04-01T11:25:45;93508.25;;;3.24
69420;BMP280;56612;52.030;113.524;2023-04-01T11:29:41;93505.81;;;3.14
69420;BMP280;56612;52.030;113.524;2023-04-01T11:41:12;93513.97;;;2.93
69420;BMP280;56612;52.030;113.524;2023-04-01T11:44:25;93509.38;;;2.93
69420;BMP280;56612;52.030;113.524;2023-04-01T11:48:11;93506.59;;;2.91
69420;BMP280;56612;52.030;113.524;2023-04-01T12:02:05;93499.38;;;2.66
69420;BMP280;56612;52.030;113.524;2023-04-01T12:08:50;93523.78;;;2.53
69420;BMP280;56612;52.030;113.524;2023-04-01T12:12:22;93512.22;;;2.47
69420;BMP280;56612;52.030;113.524;2023-04-01T12:31:55;93526.41;;;2.16
69420;BMP280;56612;52.030;113.524;2023-04-01T12:35:24;93520.22;;;2.12
69420;BMP280;56612;52.030;113.524;2023-04-01T12:42:12;93530.09;;;1.99
69420;BMP280;56612;52.030;113.524;2023-04-01T12:49:25;93554.63;;;2.02
69420;BMP280;56612;52.030;113.524;2023-04-01T12:55:46;93569.75;;;2.01
69420;BMP280;56612;52.030;113.524;2023-04-01T13:02:30;93574.53;;;2.05
69420;BMP280;56612;52.030;113.524;2023-04-01T13:16:16;93603.53;;;2.05
69420;BMP280;56612;52.030;113.524;2023-04-01T13:19:36;93606.84;;;2.05
69420;BMP280;56612;52.030;113.524;2023-04-01T13:22:51;93612.25;;;1.96
69420;BMP280;56612;52.030;113.524;2023-04-01T13:26:39;93617.41;;;1.94
69420;BMP280;56612;52.030;113.524;2023-04-01T13:33:14;93636.78;;;1.87
69420;BMP280;56612;52.030;113.524;2023-04-01T13:39:54;93643.28;;;1.74
69420;BMP280;56612;52.030;113.524;2023-04-01T13:43:04;93646.41;;;1.82
69420;BMP280;56612;52.030;113.524;2023-04-01T13:47:01;93655.78;;;1.73
69420;BMP280;56612;52.030;113.524;2023-04-01T14:00:35;93651.06;;;1.72
69420;BMP280;56612;52.030;113.524;2023-04-01T14:10:38;93657.03;;;1.72
69420;BMP280;56612;52.030;113.524;2023-04-01T14:17:35;93651.28;;;1.64
69420;BMP280;56612;52.030;113.524;2023-04-01T14:21:00;93670.97;;;1.63
69420;BMP280;56612;52.030;113.524;2023-04-01T14:41:48;93684.47;;;1.25
69420;BMP280;56612;52.030;113.524;2023-04-01T14:48:39;93699.25;;;1.18
69420;BMP280;56612;52.030;113.524;2023-04-01T14:51:52;93701.19;;;1.17
69420;BMP280;56612;52.030;113.524;2023-04-01T14:54:58;93694.66;;;1.19
69420;BMP280;56612;52.030;113.524;2023-04-01T14:58:11;93710.00;;;1.22
69420;BMP280;56612;52.030;113.524;2023-04-01T15:42:18;93742.88;;;0.28
69420;BMP280;56612;52.030;113.524;2023-04-01T15:45:29;93747.38;;;0.06
69420;BMP280;56612;52.030;113.524;2023-04-01T15:58:43;93752.78;;;-0.02
69420;BMP280;56612;52.030;113.524;2023-04-01T16:02:21;93760.97;;;-0.17
69420;BMP280;56612;52.030;113.524;2023-04-01T16:05:41;93772.41;;;-0.03
69420;BMP280;56612;52.030;113.524;2023-04-01T16:29:31;93804.50;;;-0.23
69420;BMP280;56612;52.030;113.524;2023-04-01T16:32:51;93811.13;;;-0.22
69420;BMP280;56612;52.030;113.524;2023-04-01T16:36:34;93816.50;;;-0.40
69420;BMP280;56612;52.030;113.524;2023-04-01T16:42:58;93816.25;;;-0.24
69420;BMP280;56612;52.030;113.524;2023-04-01T16:49:44;93834.88;;;-0.40
69420;BMP280;56612;52.030;113.524;2023-04-01T16:56:13;93839.47;;;-0.31
69420;BMP280;56612;52.030;113.524;2023-04-01T17:19:25;93836.88;;;-0.77
69420;BMP280;56612;52.030;113.524;2023-04-01T17:22:33;93842.94;;;-0.74
69420;BMP280;56612;52.030;113.524;2023-04-01T17:25:51;93841.69;;;-0.73
69420;BMP280;56612;52.030;113.524;2023-04-01T17:29:15;93836.63;;;-0.71
69420;BMP280;56612;52.030;113.524;2023-04-01T17:35:32;93845.81;;;-0.90
69420;BMP280;56612;52.030;113.524;2023-04-01T17:41:48;93847.72;;;-1.00
69420;BMP280;56612;52.030;113.524;2023-04-01T17:45:34;93847.56;;;-1.02
69420;BMP280;56612;52.030;113.524;2023-04-01T17:49:11;93847.78;;;-1.17
69420;BMP280;56612;52.030;113.524;2023-04-01T17:59:35;93853.81;;;-1.24
69420;BMP280;56612;52.030;113.524;2023-04-01T18:06:07;93838.56;;;-1.08
69420;BMP280;56612;52.030;113.524;2023-04-01T18:09:27;93828.47;;;-1.12
69420;BMP280;56612;52.030;113.524;2023-04-01T18:16:27;93842.75;;;-1.32
69420;BMP280;56612;52.030;113.524;2023-04-01T18:26:13;93822.47;;;-1.32
69420;BMP280;56612;52.030;113.524;2023-04-01T18:33:02;93813.91;;;-1.32
69420;BMP280;56612;52.030;113.524;2023-04-01T18:36:19;93811.28;;;-1.32
69420;BMP280;56612;52.030;113.524;2023-04-01T18:39:57;93808.50;;;-1.34
69420;BMP280;56612;52.030;113.524;2023-04-01T18:46:49;93793.84;;;-1.37
69420;BMP280;56612;52.030;113.524;2023-04-01T18:56:44;93805.03;;;-1.64
69420;BMP280;56612;52.030;113.524;2023-04-01T18:59:56;93819.66;;;-1.61
69420;BMP280;56612;52.030;113.524;2023-04-01T19:03:48;93820.81;;;-1.54
69420;BMP280;56612;52.030;113.524;2023-04-01T19:06:51;93824.72;;;-1.46
69420;BMP280;56612;52.030;113.524;2023-04-01T19:10:00;93832.31;;;-1.40
69420;BMP280;56612;52.030;113.524;2023-04-01T19:19:53;93847.56;;;-1.56
69420;BMP280;56612;52.030;113.524;2023-04-01T19:35:52;93850.28;;;-1.36
69420;BMP280;56612;52.030;113.524;2023-04-01T19:39:28;93847.22;;;-1.42
69420;BMP280;56612;52.030;113.524;2023-04-01T19:52:41;93858.78;;;-1.73
69420;BMP280;56612;52.030;113.524;2023-04-01T19:59:02;93856.66;;;-1.57
69420;BMP280;56612;52.030;113.524;2023-04-01T20:15:32;93856.09;;;-1.82
69420;BMP280;56612;52.030;113.524;2023-04-01T20:18:52;93869.56;;;-1.86
69420;BMP280;56612;52.030;113.524;2023-04-01T20:21:59;93873.63;;;-2.10
69420;BMP280;56612;52.030;113.524;2023-04-01T20:25:30;93876.16;;;-2.19
69420;BMP280;56612;52.030;113.524;2023-04-01T20:28:54;93878.31;;;-2.25
69420;BMP280;56612;52.030;113.524;2023-04-01T20:38:45;93879.28;;;-2.38
69420;BMP280;56612;52.030;113.524;2023-04-01T20:45:59;93861.66;;;-2.38
69420;BMP280;56612;52.030;113.524;2023-04-01T20:53:12;93862.47;;;-2.27
69420;BMP280;56612;52.030;113.524;2023-04-01T21:16:54;93880.13;;;-2.36
69420;BMP280;56612;52.030;113.524;2023-04-01T21:23:38;93871.63;;;-2.61
69420;BMP280;56612;52.030;113.524;2023-04-01T21:30:42;93877.38;;;-2.63
69420;BMP280;56612;52.030;113.524;2023-04-01T21:33:55;93901.81;;;-2.68
69420;BMP280;56612;52.030;113.524;2023-04-01T22:07:55;93966.59;;;-2.83
69420;BMP280;56612;52.030;113.524;2023-04-01T22:14:27;93984.44;;;-2.97
69420;BMP280;56612;52.030;113.524;2023-04-01T22:18:28;93977.59;;;-2.85
69420;BMP280;56612;52.030;113.524;2023-04-01T22:22:26;93965.19;;;-2.77
69420;BMP280;56612;52.030;113.524;2023-04-01T22:25:14;93980.19;;;-2.77
69420;BMP280;56612;52.030;113.524;2023-04-01T22:32:23;94009.94;;;-3.05
69420;BMP280;56612;52.030;113.524;2023-04-01T22:35:37;94000.06;;;-2.82
69420;BMP280;56612;52.030;113.524;2023-04-01T22:39:58;94010.53;;;-2.82
69420;BMP280;56612;52.030;113.524;2023-04-01T22:42:58;94000.66;;;-2.91
69420;BMP280;56612;52.030;113.524;2023-04-01T22:49:44;93998.47;;;-3.25
69420;BMP280;56612;52.030;113.524;2023-04-01T22:53:25;93992.94;;;-3.29
69420;BMP280;56612;52.030;113.524;2023-04-01T23:03:33;93971.63;;;-3.10
69420;BMP280;56612;52.030;113.524;2023-04-01T23:06:42;93958.03;;;-3.17
69420;BMP280;56612;52.030;113.524;2023-04-01T23:09:48;93945.03;;;-3.32
69420;BMP280;56612;52.030;113.524;2023-04-01T23:12:57;93949.06;;;-3.38
69420;BMP280;56612;52.030;113.524;2023-04-01T23:16:01;93954.41;;;-3.29
69420;BMP280;56612;52.030;113.524;2023-04-01T23:19:17;93949.00;;;-3.23
69420;BMP280;56612;52.030;113.524;2023-04-01T23:22:29;93963.78;;;-3.10
69420;BMP280;56612;52.030;113.524;2023-04-01T23:29:00;93960.59;;;-2.69
69420;BMP280;56612;52.030;113.524;2023-04-01T23:32:05;93957.19;;;-2.79
69420;BMP280;56612;52.030;113.524;2023-04-01T23:35:16;93962.06;;;-2.83
69420;BMP280;56612;52.030;113.524;2023-04-01T23:38:23;93956.75;;;-2.68
69420;BMP280;56612;52.030;113.524;2023-04-01T23:41:30;93970.28;;;-2.54
69420;BMP280;56612;52.030;113.524;2023-04-01T23:44:35;93967.63;;;-2.46
69420;BMP280;56612;52.030;113.524;2023-04-01T23:47:40;93977.81;;;-2.33
69420;BMP280;56612;52.030;113.524;2023-04-01T23:50:45;93964.97;;;-2.39
69420;BMP280;56612;52.030;113.524;2023-04-01T23:54:11;93948.19;;;-2.36
69420;BMP280;56612;52.030;113.524;2023-04-01T23:57:29;93931.69;;;-2.46
